createdAt,value
2023-02-18T00:01:21.921Z,56.70
2023-02-18T00:03:49.167Z,57.00
2023-02-18T00:06:25.527Z,56.80
2023-02-18T00:08:53.146Z,57.00
2023-02-18T00:11:21.824Z,56.90
2023-02-18T00:13:58.655Z,56.70
2023-02-18T00:16:26.612Z,57.00
2023-02-18T00:19:01.244Z,57.00
2023-02-18T00:21:28.859Z,56.90
2023-02-18T00:23:56.084Z,56.90
2023-02-18T00:26:22.969Z,57.10
2023-02-18T00:28:51.449Z,57.10
2023-02-18T00:31:27.081Z,57.30
2023-02-18T00:33:54.374Z,57.40
2023-02-18T00:36:22.771Z,57.40
2023-02-18T00:38:57.884Z,57.30
2023-02-18T00:41:27.091Z,57.30
2023-02-18T00:43:54.120Z,57.10
2023-02-18T00:46:21.686Z,57.20
2023-02-18T00:48:49.411Z,57.20
2023-02-18T00:51:16.166Z,57.50
2023-02-18T00:53:42.957Z,57.30
2023-02-18T00:56:10.497Z,57.20
2023-02-18T00:58:38.067Z,57.30
2023-02-18T01:01:07.633Z,57.50
2023-02-18T01:03:35.320Z,57.70
2023-02-18T01:06:02.246Z,57.60
2023-02-18T01:08:28.936Z,57.60
2023-02-18T01:10:58.116Z,57.70
2023-02-18T01:13:25.667Z,57.60
2023-02-18T01:15:52.818Z,57.50
2023-02-18T01:18:20.854Z,57.60
2023-02-18T01:20:48.025Z,57.80
2023-02-18T01:23:15.603Z,57.50
2023-02-18T01:25:42.688Z,57.60
2023-02-18T01:28:11.376Z,57.70
2023-02-18T01:30:38.646Z,57.70
2023-02-18T01:33:05.641Z,57.80
2023-02-18T01:35:32.318Z,57.90
2023-02-18T01:37:59.130Z,57.90
2023-02-18T01:40:28.595Z,58.00
2023-02-18T01:42:55.977Z,58.20
2023-02-18T01:45:35.040Z,58.20
2023-02-18T01:48:19.031Z,58.20
2023-02-18T01:50:50.269Z,58.40
2023-02-18T01:53:24.027Z,58.40
2023-02-18T01:55:51.106Z,58.50
2023-02-18T01:58:18.424Z,58.90
2023-02-18T02:00:45.212Z,58.70
2023-02-18T02:03:11.960Z,59.20
2023-02-18T02:05:38.751Z,58.90
2023-02-18T02:08:06.484Z,58.90
2023-02-18T02:10:45.680Z,59.00
2023-02-18T02:13:20.867Z,59.10
2023-02-18T02:15:57.212Z,59.00
2023-02-18T02:18:35.169Z,58.90
2023-02-18T02:21:38.826Z,59.10
2023-02-18T02:24:26.407Z,59.00
2023-02-18T02:27:18.089Z,58.90
2023-02-18T02:30:23.272Z,59.00
2023-02-18T02:33:06.366Z,59.00
2023-02-18T02:35:56.874Z,58.90
2023-02-18T02:38:44.181Z,58.90
2023-02-18T02:41:25.659Z,58.60
2023-02-18T02:43:58.049Z,58.80
2023-02-18T02:46:24.676Z,58.70
2023-02-18T02:49:03.705Z,58.80
2023-02-18T02:51:43.082Z,58.60
2023-02-18T02:54:17.402Z,58.10
2023-02-18T02:56:44.507Z,58.20
2023-02-18T02:59:16.289Z,58.30
2023-02-18T03:01:54.566Z,58.10
2023-02-18T03:04:31.928Z,58.00
2023-02-18T03:07:20.282Z,58.10
2023-02-18T03:09:46.917Z,58.10
2023-02-18T03:12:51.218Z,58.00
2023-02-18T03:15:30.833Z,57.90
2023-02-18T03:18:31.160Z,57.80
2023-02-18T03:21:09.179Z,57.50
2023-02-18T03:23:46.411Z,57.50
2023-02-18T03:26:15.989Z,57.70
2023-02-18T03:28:45.315Z,57.70
2023-02-18T03:31:21.160Z,57.60
2023-02-18T03:34:05.540Z,57.90
2023-02-18T03:36:34.431Z,57.80
2023-02-18T03:39:22.730Z,58.80
2023-02-18T03:41:49.779Z,58.10
2023-02-18T03:44:16.528Z,58.10
2023-02-18T03:46:45.244Z,58.10
2023-02-18T03:49:14.063Z,58.30
2023-02-18T03:51:42.014Z,58.60
2023-02-18T03:54:09.241Z,58.50
2023-02-18T03:56:36.916Z,58.40
2023-02-18T03:59:04.320Z,58.70
2023-02-18T04:01:31.566Z,59.00
2023-02-18T04:03:58.388Z,59.00
2023-02-18T04:06:25.514Z,59.00
2023-02-18T04:08:52.180Z,58.90
2023-02-18T04:11:18.979Z,59.00
2023-02-18T04:13:45.870Z,59.00
2023-02-18T04:16:12.669Z,59.00
2023-02-18T04:18:39.495Z,58.90
2023-02-18T04:21:06.472Z,58.90
2023-02-18T04:23:33.401Z,58.90
2023-02-18T04:26:00.092Z,59.00
2023-02-18T04:28:26.830Z,59.10
2023-02-18T04:30:53.606Z,59.00
2023-02-18T04:33:20.374Z,59.00
2023-02-18T04:35:47.082Z,59.00
2023-02-18T04:38:14.236Z,59.00
2023-02-18T04:40:40.991Z,59.00
2023-02-18T04:43:07.772Z,59.00
2023-02-18T04:45:34.505Z,59.10
2023-02-18T04:48:01.236Z,59.10
2023-02-18T04:50:27.964Z,59.10
2023-02-18T04:52:54.639Z,59.10
2023-02-18T04:55:21.361Z,59.20
2023-02-18T04:57:48.092Z,59.10
2023-02-18T05:00:17.999Z,59.00
2023-02-18T05:02:45.271Z,58.90
2023-02-18T05:05:13.100Z,58.90
2023-02-18T05:07:41.483Z,58.90
2023-02-18T05:10:10.941Z,58.70
2023-02-18T05:12:37.711Z,58.90
2023-02-18T05:15:05.202Z,59.00
2023-02-18T05:17:32.100Z,58.90
2023-02-18T05:19:58.820Z,58.90
2023-02-18T05:22:25.675Z,58.90
2023-02-18T05:24:52.366Z,59.00
2023-02-18T05:27:19.150Z,58.90
2023-02-18T05:29:45.852Z,59.10
2023-02-18T05:32:12.516Z,58.90
2023-02-18T05:34:39.313Z,58.90
2023-02-18T05:37:06.144Z,58.90
2023-02-18T05:39:32.814Z,58.90
2023-02-18T05:41:59.531Z,58.90
2023-02-18T05:44:32.469Z,59.20
2023-02-18T05:47:09.901Z,59.30
2023-02-18T05:49:39.465Z,59.10
2023-02-18T05:52:06.700Z,59.30
2023-02-18T05:54:33.967Z,59.30
2023-02-18T05:57:00.873Z,59.40
2023-02-18T05:59:27.794Z,59.60
2023-02-18T06:01:54.740Z,59.40
2023-02-18T06:04:21.687Z,59.30
2023-02-18T06:06:48.420Z,59.50
2023-02-18T06:09:15.460Z,59.30
2023-02-18T06:11:42.391Z,59.70
2023-02-18T06:14:09.460Z,59.60
2023-02-18T06:16:36.177Z,59.80
2023-02-18T06:19:02.906Z,59.80
2023-02-18T06:21:29.752Z,59.80
2023-02-18T06:23:56.484Z,59.80
2023-02-18T06:26:23.245Z,59.80
2023-02-18T06:28:50.066Z,59.80
2023-02-18T06:31:16.882Z,59.90
2023-02-18T06:33:43.666Z,59.90
2023-02-18T06:36:12.475Z,60.20
2023-02-18T06:38:41.082Z,60.50
2023-02-18T06:41:08.308Z,60.70
2023-02-18T06:43:35.282Z,60.70
2023-02-18T06:46:02.218Z,60.70
2023-02-18T06:48:29.261Z,60.80
2023-02-18T06:50:56.071Z,60.90
2023-02-18T06:53:22.851Z,60.50
2023-02-18T06:55:49.884Z,60.60
2023-02-18T06:58:17.713Z,60.40
2023-02-18T07:00:44.866Z,60.60
2023-02-18T07:03:13.899Z,60.50
2023-02-18T07:05:41.485Z,60.40
2023-02-18T07:08:08.687Z,60.30
2023-02-18T07:10:35.359Z,60.50
2023-02-18T07:13:02.085Z,60.80
2023-02-18T07:15:28.860Z,60.70
2023-02-18T07:17:55.953Z,60.90
2023-02-18T07:20:23.353Z,61.10
2023-02-18T07:22:50.463Z,61.10
2023-02-18T07:25:17.221Z,61.20
2023-02-18T07:27:43.966Z,61.30
2023-02-18T07:30:11.531Z,61.20
2023-02-18T07:32:38.243Z,61.30
2023-02-18T07:35:06.215Z,61.20
2023-02-18T07:37:33.292Z,62.10
2023-02-18T07:40:00.035Z,61.20
2023-02-18T07:42:26.795Z,61.20
2023-02-18T07:44:53.491Z,61.20
2023-02-18T07:47:20.287Z,61.20
2023-02-18T07:49:47.331Z,61.20
2023-02-18T07:52:15.741Z,61.20
2023-02-18T07:54:42.710Z,61.10
2023-02-18T07:57:09.502Z,61.40
2023-02-18T07:59:36.245Z,61.10
2023-02-18T08:02:03.485Z,61.00
2023-02-18T08:04:30.265Z,61.10
2023-02-18T08:06:56.951Z,60.80
2023-02-18T08:09:23.661Z,60.50
2023-02-18T08:11:50.500Z,60.40
2023-02-18T08:14:17.272Z,60.30
2023-02-18T08:16:44.061Z,60.20
2023-02-18T08:19:10.850Z,60.10
2023-02-18T08:21:37.718Z,59.80
2023-02-18T08:24:04.594Z,60.00
2023-02-18T08:26:31.353Z,60.00
2023-02-18T08:28:58.135Z,59.90
2023-02-18T08:31:27.678Z,59.70
2023-02-18T08:33:56.516Z,59.70
2023-02-18T08:36:23.503Z,59.80
2023-02-18T08:38:50.406Z,60.30
2023-02-18T08:41:18.915Z,59.70
2023-02-18T08:43:46.323Z,59.70
2023-02-18T08:46:16.022Z,59.60
2023-02-18T08:48:44.550Z,59.60
2023-02-18T08:51:22.621Z,59.70
2023-02-18T08:53:49.974Z,59.30
2023-02-18T08:56:17.708Z,59.40
2023-02-18T08:58:44.531Z,59.30
2023-02-18T09:01:12.862Z,59.40
2023-02-18T09:03:40.228Z,59.40
2023-02-18T09:06:07.524Z,59.40
2023-02-18T09:08:34.396Z,59.40
2023-02-18T09:11:04.456Z,59.30
2023-02-18T09:13:32.773Z,59.10
2023-02-18T09:16:03.623Z,58.90
2023-02-18T09:18:31.329Z,58.90
2023-02-18T09:21:00.170Z,58.90
2023-02-18T09:23:28.804Z,58.90
2023-02-18T09:25:55.829Z,58.90
2023-02-18T09:28:22.643Z,58.10
2023-02-18T09:30:49.504Z,58.20
2023-02-18T09:33:16.721Z,58.20
2023-02-18T09:35:44.986Z,58.20
2023-02-18T09:38:13.717Z,58.30
2023-02-18T09:40:47.130Z,58.30
2023-02-18T09:43:32.864Z,58.20
2023-02-18T09:46:01.815Z,58.20
2023-02-18T09:48:33.863Z,58.10
2023-02-18T09:51:00.832Z,58.10
2023-02-18T09:53:27.768Z,58.20
2023-02-18T09:55:57.060Z,57.50
2023-02-18T09:58:25.836Z,58.20
2023-02-18T10:01:20.617Z,57.70
2023-02-18T10:03:47.587Z,57.40
2023-02-18T10:06:29.466Z,57.20
2023-02-18T10:09:00.252Z,56.90
2023-02-18T10:11:42.099Z,56.80
2023-02-18T10:14:14.609Z,56.70
2023-02-18T10:16:44.038Z,57.00
2023-02-18T10:19:37.488Z,57.00
2023-02-18T10:22:06.675Z,57.00
2023-02-18T10:24:51.258Z,57.60
2023-02-18T10:27:30.308Z,57.60
2023-02-18T10:30:21.160Z,58.00
2023-02-18T10:32:50.584Z,58.10
2023-02-18T10:35:40.594Z,57.90
2023-02-18T10:38:28.842Z,58.00
2023-02-18T10:41:15.364Z,57.80
2023-02-18T10:43:42.018Z,57.60
2023-02-18T10:46:39.352Z,57.70
2023-02-18T10:49:32.879Z,57.70
2023-02-18T10:52:02.491Z,58.00
2023-02-18T10:54:50.071Z,57.90
2023-02-18T10:57:20.406Z,57.90
2023-02-18T11:00:12.748Z,57.80
2023-02-18T11:02:39.958Z,58.60
2023-02-18T11:05:24.368Z,58.30
2023-02-18T11:07:53.289Z,58.40
2023-02-18T11:10:26.131Z,57.90
2023-02-18T11:13:00.951Z,58.00
2023-02-18T11:15:29.082Z,58.30
2023-02-18T11:17:59.600Z,58.40
2023-02-18T11:20:37.264Z,58.30
2023-02-18T11:23:06.872Z,58.40
2023-02-18T11:25:36.805Z,58.30
2023-02-18T11:28:07.190Z,58.30
2023-02-18T11:30:38.115Z,58.20
2023-02-18T11:33:08.465Z,58.20
2023-02-18T11:35:36.185Z,58.30
2023-02-18T11:38:14.361Z,58.20
2023-02-18T11:40:41.122Z,58.30
2023-02-18T11:43:17.474Z,58.40
2023-02-18T11:45:44.546Z,58.40
2023-02-18T11:48:23.340Z,58.30
2023-02-18T11:50:53.915Z,58.20
2023-02-18T11:53:34.779Z,58.40
2023-02-18T11:56:16.122Z,58.40
2023-02-18T11:58:48.231Z,58.60
2023-02-18T12:01:37.054Z,58.70
2023-02-18T12:04:44.832Z,58.80
2023-02-18T12:07:52.371Z,58.50
2023-02-18T12:10:31.920Z,58.80
2023-02-18T12:13:02.600Z,58.80
2023-02-18T12:15:58.109Z,58.90
2023-02-18T12:18:50.284Z,59.00
2023-02-18T12:21:36.018Z,59.20
2023-02-18T12:24:08.866Z,59.10
2023-02-18T12:26:44.287Z,59.20
2023-02-18T12:29:22.908Z,59.20
2023-02-18T12:32:07.854Z,59.20
2023-02-18T12:34:43.292Z,59.20
2023-02-18T12:37:49.040Z,59.00
2023-02-18T12:40:36.776Z,59.10
2023-02-18T12:43:22.206Z,59.40
2023-02-18T12:45:54.853Z,59.70
2023-02-18T12:48:43.216Z,59.60
2023-02-18T12:51:56.901Z,60.00
2023-02-18T12:54:42.446Z,59.80
2023-02-18T12:57:24.519Z,59.80
2023-02-18T12:59:59.996Z,59.50
2023-02-18T13:02:46.170Z,59.60
2023-02-18T13:05:24.811Z,59.90
2023-02-18T13:08:20.062Z,59.90
2023-02-18T13:11:23.195Z,60.00
2023-02-18T13:14:09.120Z,60.00
2023-02-18T13:16:38.224Z,60.10
2023-02-18T13:19:32.159Z,60.00
2023-02-18T13:22:02.746Z,60.10
2023-02-18T13:24:38.444Z,60.30
2023-02-18T13:27:36.135Z,60.20
2023-02-18T13:30:19.159Z,60.60
2023-02-18T13:32:59.210Z,60.20
2023-02-18T13:35:34.849Z,60.50
2023-02-18T13:38:35.447Z,60.50
2023-02-18T13:41:02.836Z,60.10
2023-02-18T13:43:32.935Z,60.20
2023-02-18T13:46:08.890Z,60.40
2023-02-18T13:49:03.764Z,60.40
2023-02-18T13:51:41.063Z,60.10
2023-02-18T13:54:17.298Z,60.20
2023-02-18T13:56:51.538Z,60.30
2023-02-18T13:59:23.503Z,60.30
2023-02-18T14:01:52.220Z,60.30
2023-02-18T14:04:44.096Z,60.40
2023-02-18T14:07:44.171Z,60.10
2023-02-18T14:10:16.911Z,60.10
2023-02-18T14:13:03.176Z,60.40
2023-02-18T14:15:29.879Z,60.20
2023-02-18T14:18:15.068Z,60.30
2023-02-18T14:20:47.951Z,60.40
2023-02-18T14:23:20.484Z,60.50
2023-02-18T14:25:57.569Z,60.50
2023-02-18T14:28:36.306Z,60.30
2023-02-18T14:31:12.525Z,60.40
2023-02-18T14:34:05.113Z,60.40
2023-02-18T14:36:39.969Z,60.60
2023-02-18T14:39:30.385Z,60.60
2023-02-18T14:42:35.344Z,60.50
2023-02-18T14:45:27.390Z,60.60
2023-02-18T14:48:14.836Z,60.90
2023-02-18T14:50:43.861Z,60.70
2023-02-18T14:53:26.255Z,60.80
2023-02-18T14:56:02.239Z,60.80
2023-02-18T14:58:38.399Z,60.80
2023-02-18T15:01:19.659Z,60.80
2023-02-18T15:03:48.983Z,60.60
2023-02-18T15:06:35.392Z,61.10
2023-02-18T15:09:15.187Z,61.00
2023-02-18T15:11:51.571Z,61.10
2023-02-18T15:14:30.729Z,61.10
2023-02-18T15:16:58.306Z,61.10
2023-02-18T15:19:28.268Z,61.00
2023-02-18T15:21:57.302Z,61.00
2023-02-18T15:24:30.576Z,61.20
2023-02-18T15:27:01.724Z,61.00
2023-02-18T15:29:34.840Z,61.10
2023-02-18T15:32:13.082Z,60.80
2023-02-18T15:34:40.039Z,60.60
2023-02-18T15:37:13.822Z,60.60
2023-02-18T15:39:42.493Z,60.80
2023-02-18T15:42:34.001Z,60.80
2023-02-18T15:45:25.514Z,60.80
2023-02-18T15:47:55.869Z,60.70
2023-02-18T15:50:38.316Z,60.80
2023-02-18T15:53:15.192Z,60.90
2023-02-18T15:55:45.779Z,60.80
2023-02-18T15:58:31.488Z,60.70
2023-02-18T16:01:01.396Z,60.40
2023-02-18T16:03:30.060Z,60.70
2023-02-18T16:06:17.689Z,60.80
2023-02-18T16:09:14.810Z,61.00
2023-02-18T16:11:45.216Z,61.00
2023-02-18T16:14:33.348Z,61.00
2023-02-18T16:17:12.009Z,61.00
2023-02-18T16:20:04.519Z,61.30
2023-02-18T16:22:31.979Z,61.00
2023-02-18T16:25:09.170Z,60.80
2023-02-18T16:27:38.336Z,60.70
2023-02-18T16:30:20.391Z,60.90
2023-02-18T16:32:47.630Z,60.60
2023-02-18T16:35:14.805Z,60.60
2023-02-18T16:37:43.681Z,60.50
2023-02-18T16:40:25.038Z,60.60
2023-02-18T16:42:52.644Z,60.30
2023-02-18T16:45:21.150Z,60.30
2023-02-18T16:47:49.613Z,60.50
2023-02-18T16:50:20.533Z,60.50
2023-02-18T16:52:48.395Z,60.30
2023-02-18T16:55:23.905Z,60.40
2023-02-18T16:57:50.603Z,60.20
2023-02-18T17:00:18.608Z,60.00
2023-02-18T17:02:51.802Z,60.00
2023-02-18T17:05:30.580Z,60.10
2023-02-18T17:08:04.755Z,60.00
2023-02-18T17:10:31.492Z,59.90
2023-02-18T17:12:58.219Z,59.90
2023-02-18T17:15:34.321Z,59.80
2023-02-18T17:18:01.852Z,59.60
2023-02-18T17:20:30.873Z,59.60
2023-02-18T17:22:58.553Z,59.60
2023-02-18T17:25:31.898Z,59.80
2023-02-18T17:27:58.631Z,59.10
2023-02-18T17:30:25.621Z,59.20
2023-02-18T17:32:52.553Z,59.00
2023-02-18T17:35:22.600Z,59.00
2023-02-18T17:37:49.829Z,59.10
2023-02-18T17:40:21.919Z,59.00
2023-02-18T17:42:48.918Z,59.00
2023-02-18T17:45:27.064Z,59.00
2023-02-18T17:47:53.778Z,59.20
2023-02-18T17:50:20.504Z,59.10
2023-02-18T17:52:47.279Z,59.00
2023-02-18T17:55:20.607Z,59.00
2023-02-18T17:57:47.840Z,58.90
2023-02-18T18:00:18.314Z,59.00
2023-02-18T18:02:45.087Z,58.90
2023-02-18T18:05:24.090Z,59.00
2023-02-18T18:07:51.751Z,59.00
2023-02-18T18:10:22.036Z,59.00
2023-02-18T18:12:49.900Z,59.00
2023-02-18T18:15:26.467Z,59.00
2023-02-18T18:17:53.695Z,58.90
2023-02-18T18:20:21.531Z,59.00
2023-02-18T18:22:48.367Z,59.00
2023-02-18T18:25:33.920Z,58.90
2023-02-18T18:28:00.686Z,58.90
2023-02-18T18:30:33.176Z,59.00
2023-02-18T18:33:00.032Z,58.90
2023-02-18T18:35:32.735Z,59.00
2023-02-18T18:38:00.070Z,59.10
2023-02-18T18:40:29.919Z,59.60
2023-02-18T18:42:58.446Z,58.90
2023-02-18T18:45:34.855Z,58.90
2023-02-18T18:48:01.573Z,59.00
2023-02-18T18:50:28.784Z,59.00
2023-02-18T18:52:55.532Z,59.00
2023-02-18T18:55:31.650Z,58.90
2023-02-18T18:57:59.448Z,58.90
2023-02-18T19:00:41.249Z,58.90
2023-02-18T19:03:10.272Z,59.00
2023-02-18T19:05:39.917Z,59.00
2023-02-18T19:08:08.681Z,58.80
2023-02-18T19:10:43.633Z,59.10
2023-02-18T19:13:21.911Z,59.00
2023-02-18T19:15:50.089Z,59.00
2023-02-18T19:18:19.773Z,59.40
2023-02-18T19:20:47.562Z,59.40
2023-02-18T19:23:14.290Z,59.60
2023-02-18T19:25:41.784Z,59.60
2023-02-18T19:28:10.234Z,60.10
2023-02-18T19:30:37.650Z,59.50
2023-02-18T19:33:05.900Z,59.70
2023-02-18T19:35:33.438Z,59.50
2023-02-18T19:38:00.478Z,59.70
2023-02-18T19:40:29.639Z,59.60
2023-02-18T19:42:57.128Z,59.90
2023-02-18T19:45:24.372Z,59.50
2023-02-18T19:47:58.795Z,59.40
2023-02-18T19:50:27.424Z,59.30
2023-02-18T19:52:55.855Z,59.10
2023-02-18T19:55:23.750Z,59.50
2023-02-18T19:57:51.544Z,59.80
2023-02-18T20:00:22.383Z,59.80
2023-02-18T20:02:50.418Z,59.60
2023-02-18T20:05:17.752Z,59.80
2023-02-18T20:07:48.221Z,59.90
2023-02-18T20:10:19.885Z,59.80
2023-02-18T20:12:51.316Z,59.80
2023-02-18T20:15:18.159Z,59.80
2023-02-18T20:17:44.945Z,59.60
2023-02-18T20:20:11.800Z,59.80
2023-02-18T20:22:38.482Z,59.90
2023-02-18T20:25:05.590Z,59.80
2023-02-18T20:27:33.849Z,59.80
2023-02-18T20:30:00.790Z,59.70
2023-02-18T20:32:27.637Z,59.80
2023-02-18T20:34:54.441Z,59.70
2023-02-18T20:37:21.187Z,59.60
2023-02-18T20:39:48.138Z,59.80
2023-02-18T20:42:16.833Z,59.70
2023-02-18T20:44:44.700Z,59.60
2023-02-18T20:47:13.553Z,59.60
2023-02-18T20:49:40.822Z,59.60
2023-02-18T20:52:09.060Z,59.40
2023-02-18T20:54:36.099Z,59.50
2023-02-18T20:57:03.074Z,59.60
2023-02-18T20:59:29.994Z,59.40
2023-02-18T21:01:56.839Z,59.40
2023-02-18T21:04:23.612Z,59.50
2023-02-18T21:06:50.759Z,59.50
2023-02-18T21:09:18.328Z,59.40
2023-02-18T21:11:45.530Z,59.50
2023-02-18T21:14:12.741Z,59.60
2023-02-18T21:16:39.875Z,59.50
2023-02-18T21:19:09.286Z,59.60
2023-02-18T21:21:36.375Z,59.80
2023-02-18T21:24:03.263Z,60.00
2023-02-18T21:26:30.503Z,60.00
2023-02-18T21:29:01.024Z,60.50
2023-02-18T21:31:33.510Z,59.60
2023-02-18T21:34:00.886Z,59.60
2023-02-18T21:36:28.128Z,59.60
2023-02-18T21:38:57.949Z,59.50
2023-02-18T21:41:26.039Z,59.50
2023-02-18T21:43:53.156Z,59.40
2023-02-18T21:46:26.009Z,59.40
2023-02-18T21:49:12.355Z,59.40
2023-02-18T21:52:05.269Z,59.80
2023-02-18T21:54:36.092Z,59.70
2023-02-18T21:57:04.130Z,59.50
2023-02-18T21:59:31.980Z,59.50
2023-02-18T22:02:02.668Z,59.50
2023-02-18T22:04:31.775Z,59.30
2023-02-18T22:06:59.051Z,59.20
2023-02-18T22:09:26.516Z,59.20
2023-02-18T22:11:53.620Z,59.20
2023-02-18T22:14:20.342Z,59.40
2023-02-18T22:16:47.625Z,59.50
2023-02-18T22:19:14.997Z,59.60
2023-02-18T22:21:42.414Z,59.80
2023-02-18T22:24:11.097Z,59.70
2023-02-18T22:26:37.967Z,59.50
2023-02-18T22:29:05.873Z,59.40
2023-02-18T22:31:33.151Z,59.60
2023-02-18T22:34:00.734Z,59.70
2023-02-18T22:36:28.484Z,59.90
2023-02-18T22:38:55.751Z,60.10
2023-02-18T22:41:24.349Z,61.20
2023-02-18T22:43:55.512Z,60.30
2023-02-18T22:46:22.559Z,60.20
2023-02-18T22:48:49.700Z,60.10
2023-02-18T22:51:25.120Z,60.00
2023-02-18T22:53:54.115Z,60.40
2023-02-18T22:56:22.705Z,60.50
2023-02-18T22:58:51.564Z,60.40
2023-02-18T23:01:28.580Z,60.30
2023-02-18T23:03:57.125Z,60.40
2023-02-18T23:06:24.745Z,60.40
2023-02-18T23:08:53.737Z,60.40
2023-02-18T23:11:20.510Z,60.50
2023-02-18T23:14:07.169Z,60.60
2023-02-18T23:16:54.609Z,60.70
2023-02-18T23:19:21.597Z,60.30
2023-02-18T23:21:48.499Z,60.10
2023-02-18T23:24:15.502Z,60.20
2023-02-18T23:26:42.584Z,60.10
2023-02-18T23:29:09.411Z,60.10
2023-02-18T23:31:39.371Z,60.30
2023-02-18T23:34:08.026Z,60.30
2023-02-18T23:36:36.420Z,60.20
2023-02-18T23:39:10.792Z,60.30
2023-02-18T23:41:37.957Z,60.60
2023-02-18T23:44:06.817Z,60.80
2023-02-18T23:46:34.063Z,60.80
2023-02-18T23:49:01.161Z,61.30
2023-02-18T23:51:29.637Z,60.80
2023-02-18T23:53:56.472Z,60.70
2023-02-18T23:56:25.825Z,60.80
2023-02-18T23:58:57.314Z,60.90
